createdAt,value
2019-01-26T00:01:03.825Z,6.03
2019-01-26T00:03:30.358Z,7.67
2019-01-26T00:05:56.942Z,11.57
2019-01-26T00:08:23.517Z,8.10
2019-01-26T00:10:50.069Z,10.90
2019-01-26T00:13:16.607Z,10.10
2019-01-26T00:15:43.198Z,8.53
2019-01-26T00:18:09.864Z,9.70
2019-01-26T00:20:36.626Z,10.23
2019-01-26T00:23:03.481Z,8.43
2019-01-26T00:25:30.003Z,9.53
2019-01-26T00:27:56.523Z,7.77
2019-01-26T00:30:23.090Z,10.53
2019-01-26T00:32:49.618Z,10.83
2019-01-26T00:35:16.144Z,8.53
2019-01-26T00:37:42.674Z,9.70
2019-01-26T00:40:10.297Z,11.80
2019-01-26T00:42:36.822Z,12.37
2019-01-26T00:45:05.256Z,8.63
2019-01-26T00:47:31.795Z,8.90
2019-01-26T00:49:58.311Z,10.70
2019-01-26T00:52:24.848Z,14.00
2019-01-26T00:54:51.377Z,10.87
2019-01-26T00:57:17.923Z,10.07
2019-01-26T00:59:44.450Z,10.90
2019-01-26T01:02:10.991Z,9.93
2019-01-26T01:04:37.816Z,12.47
2019-01-26T01:07:04.661Z,12.47
2019-01-26T01:09:31.195Z,11.93
2019-01-26T01:11:57.782Z,12.17
2019-01-26T01:14:24.299Z,9.00
2019-01-26T01:16:50.827Z,8.20
2019-01-26T01:19:17.349Z,9.77
2019-01-26T01:21:43.893Z,10.30
2019-01-26T01:24:10.431Z,8.53
2019-01-26T01:26:39.978Z,7.87
2019-01-26T01:29:06.513Z,10.43
2019-01-26T01:31:33.052Z,10.53
2019-01-26T01:33:59.577Z,9.80
2019-01-26T01:36:26.105Z,13.03
2019-01-26T01:38:52.623Z,11.47
2019-01-26T01:41:19.153Z,8.73
2019-01-26T01:43:45.678Z,10.30
2019-01-26T01:46:12.209Z,8.23
2019-01-26T01:48:38.733Z,11.57
2019-01-26T01:51:05.266Z,10.83
2019-01-26T01:53:32.158Z,9.63
2019-01-26T01:55:58.683Z,9.93
2019-01-26T01:58:25.230Z,9.70
2019-01-26T02:00:51.753Z,10.27
2019-01-26T02:03:18.302Z,8.73
2019-01-26T02:05:44.833Z,7.90
2019-01-26T02:08:11.361Z,7.63
2019-01-26T02:10:37.886Z,10.53
2019-01-26T02:13:04.469Z,8.90
2019-01-26T02:15:30.997Z,8.53
2019-01-26T02:17:57.526Z,10.07
2019-01-26T02:20:24.054Z,7.73
2019-01-26T02:22:50.581Z,8.53
2019-01-26T02:25:17.212Z,7.53
2019-01-26T02:27:43.749Z,8.70
2019-01-26T02:30:12.282Z,7.73
2019-01-26T02:32:38.825Z,10.67
2019-01-26T02:35:05.793Z,8.70
2019-01-26T02:37:32.379Z,9.53
2019-01-26T02:39:58.908Z,9.73
2019-01-26T02:42:25.450Z,6.90
2019-01-26T02:44:51.977Z,7.97
2019-01-26T02:47:18.493Z,9.40
2019-01-26T02:49:45.028Z,7.90
2019-01-26T02:52:11.561Z,7.93
2019-01-26T02:54:38.086Z,6.67
2019-01-26T02:57:04.909Z,9.90
2019-01-26T02:59:31.515Z,9.10
2019-01-26T03:01:58.129Z,7.30
2019-01-26T03:04:24.660Z,8.10
2019-01-26T03:06:51.189Z,9.00
2019-01-26T03:09:17.722Z,10.27
2019-01-26T03:11:44.244Z,7.47
2019-01-26T03:14:10.780Z,9.67
2019-01-26T03:16:37.310Z,9.67
2019-01-26T03:19:03.846Z,6.40
2019-01-26T03:21:30.390Z,6.83
2019-01-26T03:23:56.917Z,7.70
2019-01-26T03:26:23.441Z,8.23
2019-01-26T03:28:49.998Z,8.00
2019-01-26T03:31:16.537Z,8.43
2019-01-26T03:33:43.053Z,4.47
2019-01-26T03:36:09.617Z,6.63
2019-01-26T03:38:36.249Z,5.83
2019-01-26T03:41:02.798Z,5.57
2019-01-26T03:43:29.439Z,7.37
2019-01-26T03:45:55.967Z,6.87
2019-01-26T03:48:22.499Z,9.07
2019-01-26T03:50:49.045Z,7.03
2019-01-26T03:53:15.569Z,9.10
2019-01-26T03:55:42.093Z,7.37
2019-01-26T03:58:08.619Z,7.93
2019-01-26T04:00:35.156Z,7.27
2019-01-26T04:03:01.778Z,8.30
2019-01-26T04:05:28.334Z,5.73
2019-01-26T04:07:54.953Z,7.37
2019-01-26T04:10:21.495Z,5.53
2019-01-26T04:12:48.010Z,7.10
2019-01-26T04:15:15.553Z,5.70
2019-01-26T04:17:42.073Z,6.63
2019-01-26T04:20:09.823Z,5.47
2019-01-26T04:22:36.342Z,5.77
2019-01-26T04:25:04.175Z,4.67
2019-01-26T04:27:30.997Z,7.23
2019-01-26T04:29:57.525Z,6.97
2019-01-26T04:32:24.049Z,8.20
2019-01-26T04:34:50.822Z,5.47
2019-01-26T04:37:17.350Z,3.93
2019-01-26T04:39:43.921Z,5.80
2019-01-26T04:42:10.523Z,5.93
2019-01-26T04:44:37.042Z,7.63
2019-01-26T04:47:03.571Z,4.53
2019-01-26T04:49:30.100Z,5.77
2019-01-26T04:51:56.666Z,6.20
2019-01-26T04:54:23.195Z,5.17
2019-01-26T04:56:49.721Z,4.97
2019-01-26T04:59:16.242Z,5.23
2019-01-26T05:01:42.776Z,4.70
2019-01-26T05:04:09.307Z,7.30
2019-01-26T05:06:35.853Z,5.23
2019-01-26T05:09:05.388Z,4.73
2019-01-26T05:11:31.928Z,5.73
2019-01-26T05:13:58.476Z,8.33
2019-01-26T05:16:25.005Z,7.83
2019-01-26T05:18:51.525Z,5.30
2019-01-26T05:21:18.061Z,6.13
2019-01-26T05:23:44.585Z,7.10
2019-01-26T05:26:11.122Z,4.93
2019-01-26T05:28:37.694Z,6.30
2019-01-26T05:31:04.227Z,4.63
2019-01-26T05:33:30.759Z,7.30
2019-01-26T05:35:57.296Z,6.17
2019-01-26T05:38:24.123Z,6.30
2019-01-26T05:40:50.651Z,6.00
2019-01-26T05:43:17.201Z,5.03
2019-01-26T05:45:43.725Z,6.97
2019-01-26T05:48:10.278Z,4.40
2019-01-26T05:50:36.810Z,5.73
2019-01-26T05:53:03.476Z,5.47
2019-01-26T05:55:30.085Z,6.30
2019-01-26T05:57:56.633Z,5.70
2019-01-26T06:00:28.203Z,8.63
2019-01-26T06:02:54.734Z,5.27
2019-01-26T06:05:21.280Z,5.80
2019-01-26T06:07:47.814Z,6.53
2019-01-26T06:10:14.342Z,4.67
2019-01-26T06:12:40.886Z,5.90
2019-01-26T06:15:09.017Z,7.20
2019-01-26T06:17:35.553Z,4.83
2019-01-26T06:20:03.589Z,5.33
2019-01-26T06:22:30.126Z,2.93
2019-01-26T06:24:56.649Z,4.37
2019-01-26T06:27:23.197Z,5.20
2019-01-26T06:29:49.732Z,4.17
2019-01-26T06:32:16.510Z,6.13
2019-01-26T06:34:43.195Z,4.30
2019-01-26T06:37:09.731Z,4.20
2019-01-26T06:39:36.261Z,4.87
2019-01-26T06:42:02.897Z,4.03
2019-01-26T06:44:29.418Z,3.63
2019-01-26T06:46:55.954Z,6.60
2019-01-26T06:49:22.485Z,4.83
2019-01-26T06:51:54.722Z,3.70
2019-01-26T06:54:21.249Z,3.70
2019-01-26T06:56:47.765Z,2.83
2019-01-26T06:59:14.308Z,4.67
2019-01-26T07:01:41.088Z,5.53
2019-01-26T07:04:09.526Z,2.93
2019-01-26T07:06:37.267Z,3.17
2019-01-26T07:09:05.030Z,3.07
2019-01-26T07:11:31.568Z,3.00
2019-01-26T07:13:58.093Z,2.43
2019-01-26T07:16:25.122Z,3.10
2019-01-26T07:18:51.653Z,2.37
2019-01-26T07:21:18.190Z,2.73
2019-01-26T07:23:44.730Z,6.23
2019-01-26T07:26:11.270Z,4.40
2019-01-26T07:28:37.811Z,3.07
2019-01-26T07:31:04.344Z,3.73
2019-01-26T07:33:30.884Z,3.47
2019-01-26T07:35:57.429Z,3.43
2019-01-26T07:38:23.961Z,3.17
2019-01-26T07:40:50.498Z,3.67
2019-01-26T07:43:17.036Z,3.10
2019-01-26T07:45:43.574Z,3.43
2019-01-26T07:48:16.536Z,6.00
2019-01-26T07:50:38.556Z,3.53
2019-01-26T07:53:05.093Z,4.87
2019-01-26T07:55:31.618Z,3.67
2019-01-26T07:58:03.977Z,4.47
2019-01-26T08:00:36.418Z,4.40
2019-01-26T08:03:02.958Z,5.00
2019-01-26T08:05:29.496Z,4.00
2019-01-26T08:07:56.020Z,3.50
2019-01-26T08:10:23.655Z,5.03
2019-01-26T08:12:50.189Z,2.73
2019-01-26T08:15:18.130Z,3.33
2019-01-26T08:17:44.655Z,3.43
2019-01-26T08:20:12.793Z,2.30
2019-01-26T08:22:39.313Z,3.47
2019-01-26T08:25:06.550Z,4.03
2019-01-26T08:27:33.078Z,2.70
2019-01-26T08:29:59.613Z,4.53
2019-01-26T08:32:26.151Z,2.40
2019-01-26T08:34:52.687Z,3.33
2019-01-26T08:37:19.230Z,5.00
2019-01-26T08:39:45.778Z,2.77
2019-01-26T08:42:12.301Z,3.23
2019-01-26T08:44:38.837Z,3.37
2019-01-26T08:47:05.361Z,3.57
2019-01-26T08:49:31.910Z,3.43
2019-01-26T08:51:58.445Z,2.90
2019-01-26T08:54:24.982Z,3.93
2019-01-26T08:56:51.509Z,2.77
2019-01-26T08:59:18.057Z,3.50
2019-01-26T09:01:45.200Z,5.37
2019-01-26T09:04:13.643Z,2.33
2019-01-26T09:06:40.187Z,3.33
2019-01-26T09:09:07.240Z,2.93
2019-01-26T09:11:33.770Z,2.63
2019-01-26T09:14:00.318Z,3.30
2019-01-26T09:16:26.854Z,3.30
2019-01-26T09:18:53.385Z,3.13
2019-01-26T09:21:19.941Z,2.97
2019-01-26T09:23:46.461Z,2.93
2019-01-26T09:26:12.997Z,5.27
2019-01-26T09:28:39.557Z,3.73
2019-01-26T09:31:06.151Z,4.47
2019-01-26T09:33:32.742Z,4.60
2019-01-26T09:35:59.305Z,5.43
2019-01-26T09:38:25.833Z,3.87
2019-01-26T09:40:52.367Z,4.30
2019-01-26T09:43:18.898Z,4.90
2019-01-26T09:45:45.433Z,4.47
2019-01-26T09:48:11.965Z,3.70
2019-01-26T09:50:38.506Z,4.40
2019-01-26T09:53:05.029Z,3.17
2019-01-26T09:55:31.575Z,3.90
2019-01-26T09:57:58.089Z,3.77
2019-01-26T10:00:25.436Z,3.97
2019-01-26T10:02:51.976Z,3.27
2019-01-26T10:05:18.633Z,5.60
2019-01-26T10:07:45.167Z,4.40
2019-01-26T10:10:12.294Z,5.43
2019-01-26T10:12:38.817Z,6.10
2019-01-26T10:15:07.460Z,5.70
2019-01-26T10:17:33.996Z,4.10
2019-01-26T10:20:00.523Z,4.13
2019-01-26T10:22:27.065Z,4.20
2019-01-26T10:24:53.598Z,3.53
2019-01-26T10:27:20.130Z,3.80
2019-01-26T10:29:46.660Z,5.00
2019-01-26T10:32:13.206Z,3.17
2019-01-26T10:34:39.734Z,3.20
2019-01-26T10:37:08.182Z,2.43
2019-01-26T10:39:34.707Z,4.57
2019-01-26T10:42:03.141Z,3.27
2019-01-26T10:44:29.677Z,3.63
2019-01-26T10:46:56.310Z,2.93
2019-01-26T10:49:22.843Z,2.60
2019-01-26T10:51:49.386Z,2.43
2019-01-26T10:54:16.009Z,2.33
2019-01-26T10:56:42.549Z,6.33
2019-01-26T10:59:09.077Z,5.17
2019-01-26T11:01:35.709Z,3.03
2019-01-26T11:04:02.330Z,2.90
2019-01-26T11:06:28.889Z,2.30
2019-01-26T11:08:55.421Z,2.43
2019-01-26T11:11:21.964Z,2.23
2019-01-26T11:13:48.498Z,2.23
2019-01-26T11:16:15.029Z,3.47
2019-01-26T11:18:41.545Z,2.67
2019-01-26T11:21:08.078Z,2.63
2019-01-26T11:23:34.617Z,2.50
2019-01-26T11:26:01.150Z,2.20
2019-01-26T11:28:27.701Z,1.60
2019-01-26T11:30:54.231Z,2.00
2019-01-26T11:33:20.765Z,2.20
2019-01-26T11:35:47.394Z,2.27
2019-01-26T11:38:13.924Z,2.63
2019-01-26T11:40:40.454Z,2.67
2019-01-26T11:43:07.005Z,3.00
2019-01-26T11:45:41.139Z,2.00
2019-01-26T11:48:09.673Z,1.83
2019-01-26T11:50:47.108Z,1.60
2019-01-26T11:53:13.966Z,3.07
2019-01-26T11:55:42.396Z,2.13
2019-01-26T11:58:08.966Z,1.57
2019-01-26T12:00:59.393Z,1.60
2019-01-26T12:03:27.029Z,1.97
2019-01-26T12:05:55.469Z,1.20
2019-01-26T12:08:21.998Z,1.93
2019-01-26T12:10:48.565Z,1.80
2019-01-26T12:13:15.101Z,1.67
2019-01-26T12:15:41.624Z,1.57
2019-01-26T12:18:08.157Z,1.87
2019-01-26T12:20:34.689Z,1.73
2019-01-26T12:23:01.229Z,1.80
2019-01-26T12:25:30.893Z,1.80
2019-01-26T12:27:57.433Z,1.67
2019-01-26T12:30:23.968Z,2.23
2019-01-26T12:32:50.653Z,1.80
2019-01-26T12:35:17.182Z,2.23
2019-01-26T12:37:43.706Z,3.13
2019-01-26T12:40:11.253Z,2.37
2019-01-26T12:42:59.220Z,4.27
2019-01-26T12:45:25.943Z,2.73
2019-01-26T12:47:52.488Z,2.07
2019-01-26T12:50:19.031Z,3.00
2019-01-26T12:52:45.578Z,2.08
2019-01-26T12:55:16.011Z,5.83
2019-01-26T12:57:42.634Z,2.60
2019-01-26T13:00:11.092Z,4.37
2019-01-26T13:02:37.628Z,1.80
2019-01-26T13:05:05.014Z,2.37
2019-01-26T13:07:31.662Z,4.43
2019-01-26T13:09:58.210Z,4.50
2019-01-26T13:12:24.998Z,4.83
2019-01-26T13:14:51.849Z,2.87
2019-01-26T13:17:18.407Z,3.83
2019-01-26T13:19:44.948Z,2.90
2019-01-26T13:22:11.496Z,2.53
2019-01-26T13:24:38.059Z,3.60
2019-01-26T13:27:04.617Z,2.77
2019-01-26T13:29:31.188Z,2.07
2019-01-26T13:31:57.734Z,2.53
2019-01-26T13:34:24.287Z,2.73
2019-01-26T13:36:50.835Z,4.03
2019-01-26T13:39:17.382Z,2.00
2019-01-26T13:41:43.919Z,2.83
2019-01-26T13:44:10.471Z,2.37
2019-01-26T13:46:37.011Z,3.30
2019-01-26T13:49:03.572Z,4.47
2019-01-26T13:51:30.138Z,3.50
2019-01-26T13:53:56.690Z,3.40
2019-01-26T13:56:23.236Z,2.33
2019-01-26T13:58:50.129Z,3.10
2019-01-26T14:01:16.843Z,3.07
2019-01-26T14:03:43.390Z,1.90
2019-01-26T14:06:09.944Z,3.47
2019-01-26T14:08:36.942Z,2.77
2019-01-26T14:11:03.494Z,3.17
2019-01-26T14:13:30.032Z,3.27
2019-01-26T14:15:56.906Z,2.53
2019-01-26T14:18:23.545Z,2.90
2019-01-26T14:20:50.443Z,2.67
2019-01-26T14:23:16.988Z,4.60
2019-01-26T14:25:43.568Z,4.60
2019-01-26T14:28:10.231Z,3.10
2019-01-26T14:30:38.304Z,3.70
2019-01-26T14:33:04.832Z,2.83
2019-01-26T14:35:31.392Z,3.40
2019-01-26T14:37:57.954Z,3.30
2019-01-26T14:40:24.623Z,3.27
2019-01-26T14:42:54.406Z,3.03
2019-01-26T14:45:19.719Z,3.30
2019-01-26T14:47:46.270Z,2.63
2019-01-26T14:50:16.620Z,5.23
2019-01-26T14:52:43.701Z,3.37
2019-01-26T14:55:11.753Z,3.47
2019-01-26T14:57:38.291Z,4.83
2019-01-26T15:00:12.569Z,2.67
2019-01-26T15:02:39.111Z,2.63
2019-01-26T15:05:06.278Z,4.13
2019-01-26T15:07:32.921Z,4.53
2019-01-26T15:09:59.479Z,2.77
2019-01-26T15:12:26.325Z,3.97
2019-01-26T15:14:52.871Z,4.53
2019-01-26T15:17:19.410Z,2.50
2019-01-26T15:19:45.941Z,4.67
2019-01-26T15:22:12.498Z,3.00
2019-01-26T15:24:39.039Z,5.87
2019-01-26T15:27:05.587Z,2.73
2019-01-26T15:29:32.982Z,3.73
2019-01-26T15:31:59.547Z,3.63
2019-01-26T15:34:26.083Z,3.27
2019-01-26T15:36:52.634Z,5.67
2019-01-26T15:39:19.186Z,6.37
2019-01-26T15:41:45.730Z,3.53
2019-01-26T15:44:12.618Z,3.77
2019-01-26T15:46:39.173Z,5.70
2019-01-26T15:49:05.850Z,3.70
2019-01-26T15:51:32.426Z,2.97
2019-01-26T15:53:58.984Z,3.33
2019-01-26T15:56:25.572Z,3.40
2019-01-26T15:58:52.434Z,3.47
2019-01-26T16:01:18.987Z,3.47
2019-01-26T16:03:45.531Z,4.73
2019-01-26T16:06:12.204Z,5.00
2019-01-26T16:08:38.773Z,4.30
2019-01-26T16:11:05.375Z,5.03
2019-01-26T16:13:31.914Z,4.53
2019-01-26T16:15:58.446Z,3.47
2019-01-26T16:18:25.185Z,3.80
2019-01-26T16:20:51.731Z,4.27
2019-01-26T16:23:18.288Z,4.77
2019-01-26T16:25:44.845Z,3.70
2019-01-26T16:28:11.433Z,5.53
2019-01-26T16:30:37.967Z,4.47
2019-01-26T16:33:04.631Z,3.27
2019-01-26T16:35:31.199Z,3.80
2019-01-26T16:37:58.578Z,3.77
2019-01-26T16:40:29.330Z,3.57
2019-01-26T16:42:56.074Z,3.57
2019-01-26T16:45:24.087Z,4.50
2019-01-26T16:47:50.763Z,4.10
2019-01-26T16:50:27.293Z,3.60
2019-01-26T16:52:49.693Z,3.40
2019-01-26T16:55:17.356Z,3.33
2019-01-26T16:57:43.915Z,3.03
2019-01-26T17:00:18.444Z,2.87
2019-01-26T17:02:45.011Z,2.50
2019-01-26T17:05:11.667Z,2.57
2019-01-26T17:07:38.300Z,3.87
2019-01-26T17:10:12.778Z,2.03
2019-01-26T17:12:39.324Z,1.80
2019-01-26T17:15:07.664Z,2.23
2019-01-26T17:17:34.356Z,3.10
2019-01-26T17:20:01.003Z,1.83
2019-01-26T17:22:27.663Z,3.60
2019-01-26T17:24:54.700Z,2.80
2019-01-26T17:27:21.235Z,2.73
2019-01-26T17:29:47.803Z,2.60
2019-01-26T17:32:14.343Z,3.13
2019-01-26T17:34:41.366Z,2.17
2019-01-26T17:37:07.907Z,6.97
2019-01-26T17:39:34.518Z,3.93
2019-01-26T17:42:01.071Z,4.33
2019-01-26T17:44:27.722Z,2.97
2019-01-26T17:46:54.263Z,2.20
2019-01-26T17:49:20.815Z,2.10
2019-01-26T17:51:47.367Z,2.47
2019-01-26T17:54:13.933Z,2.73
2019-01-26T17:56:40.482Z,3.17
2019-01-26T17:59:07.043Z,2.40
2019-01-26T18:01:33.594Z,2.47
2019-01-26T18:04:00.147Z,2.47
2019-01-26T18:06:26.817Z,2.20
2019-01-26T18:08:53.796Z,3.33
2019-01-26T18:11:20.350Z,3.80
2019-01-26T18:13:46.895Z,1.70
2019-01-26T18:16:13.441Z,2.03
2019-01-26T18:18:39.988Z,2.73
2019-01-26T18:21:06.527Z,2.37
2019-01-26T18:23:33.179Z,2.03
2019-01-26T18:25:59.825Z,2.53
2019-01-26T18:28:26.388Z,3.33
2019-01-26T18:30:52.928Z,2.77
2019-01-26T18:33:19.460Z,2.67
2019-01-26T18:35:46.021Z,3.17
2019-01-26T18:38:12.587Z,6.87
2019-01-26T18:40:39.151Z,3.30
2019-01-26T18:43:05.714Z,2.60
2019-01-26T18:45:32.382Z,2.27
2019-01-26T18:47:59.300Z,1.83
2019-01-26T18:50:30.788Z,3.07
2019-01-26T18:52:57.328Z,2.33
2019-01-26T18:55:23.880Z,3.47
2019-01-26T18:57:50.433Z,4.10
2019-01-26T19:00:24.373Z,2.40
2019-01-26T19:02:52.815Z,3.30
2019-01-26T19:05:20.584Z,2.53
2019-01-26T19:07:47.201Z,3.17
2019-01-26T19:10:13.751Z,2.90
2019-01-26T19:12:40.293Z,5.23
2019-01-26T19:15:14.945Z,2.70
2019-01-26T19:17:41.488Z,2.80
2019-01-26T19:20:09.087Z,2.40
2019-01-26T19:22:36.037Z,3.10
2019-01-26T19:25:03.767Z,2.70
2019-01-26T19:27:30.334Z,3.47
2019-01-26T19:29:56.896Z,2.83
2019-01-26T19:32:23.429Z,3.07
2019-01-26T19:34:49.996Z,4.30
2019-01-26T19:37:16.719Z,2.87
2019-01-26T19:39:43.277Z,2.43
2019-01-26T19:42:09.813Z,3.20
2019-01-26T19:44:36.347Z,3.23
2019-01-26T19:47:03.281Z,3.40
2019-01-26T19:49:29.891Z,3.53
2019-01-26T19:51:56.557Z,3.00
2019-01-26T19:54:23.099Z,2.67
2019-01-26T19:56:49.651Z,2.80
2019-01-26T19:59:16.186Z,3.53
2019-01-26T20:01:42.756Z,2.80
2019-01-26T20:04:09.445Z,3.10
2019-01-26T20:06:36.255Z,2.47
2019-01-26T20:09:09.338Z,3.13
2019-01-26T20:11:33.300Z,2.80
2019-01-26T20:13:59.919Z,2.63
2019-01-26T20:16:26.493Z,2.70
2019-01-26T20:18:53.033Z,2.83
2019-01-26T20:21:19.587Z,4.03
2019-01-26T20:23:46.132Z,4.37
2019-01-26T20:26:12.691Z,3.50
2019-01-26T20:28:39.227Z,3.27
2019-01-26T20:31:05.957Z,2.93
2019-01-26T20:33:32.496Z,2.73
2019-01-26T20:35:59.060Z,2.20
2019-01-26T20:38:25.610Z,2.67
2019-01-26T20:40:52.180Z,2.97
2019-01-26T20:43:18.864Z,2.60
2019-01-26T20:45:45.427Z,2.37
2019-01-26T20:48:11.964Z,3.20
2019-01-26T20:50:38.558Z,2.93
2019-01-26T20:53:05.188Z,2.30
2019-01-26T20:55:31.751Z,2.20
2019-01-26T20:57:58.327Z,2.27
2019-01-26T21:00:28.982Z,2.77
2019-01-26T21:02:55.528Z,3.10
2019-01-26T21:05:22.490Z,2.90
2019-01-26T21:07:49.459Z,2.73
2019-01-26T21:10:17.419Z,3.67
2019-01-26T21:12:44.215Z,3.07
2019-01-26T21:15:10.872Z,2.10
2019-01-26T21:17:37.421Z,2.50
2019-01-26T21:20:05.898Z,1.87
2019-01-26T21:22:32.601Z,2.00
2019-01-26T21:24:59.147Z,2.47
2019-01-26T21:27:25.724Z,2.47
2019-01-26T21:29:52.268Z,1.70
2019-01-26T21:32:18.825Z,2.10
2019-01-26T21:34:45.568Z,2.27
2019-01-26T21:37:12.317Z,3.27
2019-01-26T21:39:38.856Z,2.57
2019-01-26T21:42:05.443Z,2.33
2019-01-26T21:44:32.071Z,2.17
2019-01-26T21:46:58.652Z,2.83
2019-01-26T21:49:25.195Z,3.00
2019-01-26T21:51:51.758Z,2.23
2019-01-26T21:54:18.301Z,3.47
2019-01-26T21:56:44.848Z,2.33
2019-01-26T21:59:11.428Z,2.00
2019-01-26T22:01:37.984Z,2.53
2019-01-26T22:04:04.644Z,2.73
2019-01-26T22:06:31.192Z,2.33
2019-01-26T22:08:57.844Z,2.10
2019-01-26T22:11:24.392Z,1.80
2019-01-26T22:13:50.962Z,4.20
2019-01-26T22:16:17.512Z,2.90
2019-01-26T22:18:44.085Z,2.57
2019-01-26T22:21:10.618Z,2.43
2019-01-26T22:23:37.539Z,2.47
2019-01-26T22:26:04.208Z,2.27
2019-01-26T22:28:30.755Z,3.33
2019-01-26T22:30:57.296Z,2.80
2019-01-26T22:33:23.909Z,3.73
2019-01-26T22:35:50.523Z,2.63
2019-01-26T22:38:17.081Z,2.13
2019-01-26T22:40:43.628Z,1.67
2019-01-26T22:43:12.187Z,1.93
2019-01-26T22:45:38.729Z,2.23
2019-01-26T22:48:05.272Z,2.67
2019-01-26T22:50:31.833Z,1.77
2019-01-26T22:52:58.463Z,1.83
2019-01-26T22:55:25.125Z,1.73
2019-01-26T22:57:51.960Z,1.77
2019-01-26T23:00:28.375Z,1.57
2019-01-26T23:02:55.158Z,1.77
2019-01-26T23:05:32.688Z,1.73
2019-01-26T23:07:59.439Z,2.20
2019-01-26T23:10:27.894Z,1.53
2019-01-26T23:12:56.353Z,2.93
2019-01-26T23:15:24.824Z,2.60
2019-01-26T23:18:05.318Z,1.57
2019-01-26T23:20:33.772Z,2.93
2019-01-26T23:23:18.907Z,2.67
2019-01-26T23:25:50.220Z,1.60
2019-01-26T23:28:24.612Z,1.53
2019-01-26T23:30:55.855Z,2.87
2019-01-26T23:33:22.426Z,2.23
2019-01-26T23:35:48.972Z,1.70
2019-01-26T23:38:15.507Z,2.20
2019-01-26T23:40:42.063Z,1.70
2019-01-26T23:43:08.643Z,1.70
2019-01-26T23:45:35.224Z,1.50
2019-01-26T23:48:01.768Z,2.00
2019-01-26T23:50:28.407Z,1.93
2019-01-26T23:52:54.975Z,2.17
2019-01-26T23:55:21.537Z,1.30
2019-01-26T23:57:48.076Z,2.17
